createdAt,value
2023-05-14T00:00:06.548Z,101209.81
2023-05-14T00:02:34.081Z,101241.75
2023-05-14T00:05:00.716Z,101066.03
2023-05-14T00:07:30.854Z,100857.84
2023-05-14T00:09:58.745Z,101229.75
2023-05-14T00:12:26.734Z,101236.53
2023-05-14T00:14:54.108Z,101186.38
2023-05-14T00:17:20.782Z,101149.50
2023-05-14T00:19:47.556Z,101165.50
2023-05-14T00:22:14.269Z,101136.31
2023-05-14T00:24:40.980Z,101092.38
2023-05-14T00:27:07.801Z,101187.03
2023-05-14T00:29:34.485Z,101203.81
2023-05-14T00:32:01.227Z,101094.91
2023-05-14T00:34:27.900Z,101157.97
2023-05-14T00:36:54.512Z,101176.47
2023-05-14T00:39:21.260Z,101111.66
2023-05-14T00:41:47.879Z,101021.09
2023-05-14T00:44:14.640Z,101224.13
2023-05-14T00:46:43.727Z,101216.94
2023-05-14T00:49:11.355Z,101208.91
2023-05-14T00:51:38.595Z,100928.06
2023-05-14T00:54:06.412Z,101064.97
2023-05-14T00:56:34.883Z,101188.19
2023-05-14T00:59:01.829Z,101179.03
2023-05-14T01:01:28.835Z,101202.38
2023-05-14T01:03:57.992Z,101184.22
2023-05-14T01:06:45.772Z,101209.31
2023-05-14T01:09:36.348Z,101208.34
2023-05-14T01:12:14.214Z,101209.94
2023-05-14T01:14:47.836Z,101088.47
2023-05-14T01:17:20.061Z,101112.34
2023-05-14T01:19:47.743Z,101221.19
2023-05-14T01:22:14.883Z,101137.47
2023-05-14T01:24:41.641Z,101162.06
2023-05-14T01:27:24.982Z,101189.44
2023-05-14T01:30:18.047Z,101188.91
2023-05-14T01:32:48.396Z,101120.84
2023-05-14T01:35:16.308Z,101068.81
2023-05-14T01:37:44.653Z,101176.22
2023-05-14T01:40:13.424Z,101194.50
2023-05-14T01:42:41.182Z,101199.03
2023-05-14T01:45:08.635Z,101100.69
2023-05-14T01:47:35.518Z,101191.53
2023-05-14T01:50:02.344Z,101214.75
2023-05-14T01:52:29.309Z,101054.56
2023-05-14T01:54:58.369Z,101053.59
2023-05-14T01:57:25.210Z,101068.59
2023-05-14T01:59:51.965Z,101179.28
2023-05-14T02:02:18.636Z,101101.28
2023-05-14T02:04:45.632Z,101148.47
2023-05-14T02:07:12.456Z,101070.47
2023-05-14T02:09:40.162Z,101204.75
2023-05-14T02:12:08.891Z,101205.59
2023-05-14T02:14:35.965Z,101203.91
2023-05-14T02:17:03.567Z,101324.78
2023-05-14T02:19:30.722Z,101212.47
2023-05-14T02:21:59.473Z,101209.38
2023-05-14T02:24:26.123Z,101182.72
2023-05-14T02:26:52.779Z,101074.88
2023-05-14T02:29:19.449Z,101208.09
2023-05-14T02:31:46.144Z,101220.56
2023-05-14T02:34:12.920Z,101107.47
2023-05-14T02:36:40.060Z,101288.34
2023-05-14T02:39:06.717Z,101221.53
2023-05-14T02:41:33.407Z,101188.41
2023-05-14T02:44:00.144Z,101212.09
2023-05-14T02:46:27.012Z,101199.03
2023-05-14T02:48:55.017Z,101216.50
2023-05-14T02:51:21.773Z,101214.34
2023-05-14T02:53:48.651Z,101183.78
2023-05-14T02:56:15.466Z,101042.50
2023-05-14T02:58:42.426Z,101105.25
2023-05-14T03:01:09.160Z,101071.81
2023-05-14T03:03:36.621Z,101064.66
2023-05-14T03:06:04.459Z,101126.91
2023-05-14T03:08:31.231Z,101115.03
2023-05-14T03:10:57.954Z,101165.19
2023-05-14T03:13:25.542Z,101198.31
2023-05-14T03:15:58.928Z,101206.91
2023-05-14T03:18:28.476Z,101198.97
2023-05-14T03:20:55.182Z,101048.69
2023-05-14T03:23:22.016Z,100904.34
2023-05-14T03:25:48.699Z,101121.06
2023-05-14T03:28:15.414Z,101192.03
2023-05-14T03:30:42.152Z,101189.50
2023-05-14T03:33:10.159Z,101200.88
2023-05-14T03:35:36.818Z,101093.06
2023-05-14T03:38:03.400Z,101137.91
2023-05-14T03:40:30.285Z,101205.19
2023-05-14T03:42:57.086Z,101117.88
2023-05-14T03:45:24.024Z,101116.25
2023-05-14T03:47:50.822Z,101163.25
2023-05-14T03:50:18.013Z,101186.81
2023-05-14T03:52:45.923Z,101187.22
2023-05-14T03:55:12.716Z,101186.25
2023-05-14T03:57:40.529Z,101039.69
2023-05-14T04:00:08.195Z,101126.84
2023-05-14T04:02:43.665Z,101083.59
2023-05-14T04:05:10.566Z,101181.41
2023-05-14T04:07:37.327Z,100964.03
2023-05-14T04:10:04.828Z,100963.72
2023-05-14T04:12:32.061Z,101172.50
2023-05-14T04:14:58.889Z,101151.03
2023-05-14T04:17:25.961Z,101106.91
2023-05-14T04:19:52.656Z,101192.66
2023-05-14T04:22:19.290Z,100981.31
2023-05-14T04:24:46.095Z,100998.41
2023-05-14T04:27:24.906Z,100993.88
2023-05-14T04:29:56.369Z,101187.16
2023-05-14T04:32:23.110Z,101181.09
2023-05-14T04:34:49.733Z,101084.25
2023-05-14T04:37:16.483Z,100948.50
2023-05-14T04:39:43.682Z,101172.19
2023-05-14T04:42:10.838Z,101130.41
2023-05-14T04:44:37.924Z,101171.25
2023-05-14T04:47:05.020Z,101179.84
2023-05-14T04:49:31.946Z,101110.78
2023-05-14T04:51:58.725Z,101170.47
2023-05-14T04:54:25.492Z,101172.84
2023-05-14T04:56:52.298Z,100876.44
2023-05-14T04:59:18.897Z,101116.88
2023-05-14T05:01:46.008Z,101093.31
2023-05-14T05:04:13.029Z,101159.47
2023-05-14T05:06:40.066Z,101156.72
2023-05-14T05:09:06.779Z,101055.78
2023-05-14T05:11:34.315Z,101048.81
2023-05-14T05:14:00.959Z,101030.09
2023-05-14T05:16:27.615Z,101156.19
2023-05-14T05:18:54.401Z,101124.81
2023-05-14T05:21:21.249Z,101167.03
2023-05-14T05:23:47.929Z,101018.53
2023-05-14T05:26:15.043Z,101122.75
2023-05-14T05:28:41.730Z,101160.03
2023-05-14T05:31:08.683Z,101124.25
2023-05-14T05:33:35.845Z,101161.66
2023-05-14T05:36:09.921Z,101155.41
2023-05-14T05:38:36.595Z,101062.25
2023-05-14T05:41:05.222Z,100995.00
2023-05-14T05:43:36.361Z,101158.63
2023-05-14T05:46:06.905Z,100891.31
2023-05-14T05:48:35.987Z,101138.78
2023-05-14T05:51:05.796Z,101115.66
2023-05-14T05:53:33.887Z,101154.78
2023-05-14T05:56:00.762Z,101145.34
2023-05-14T05:58:27.551Z,101060.75
2023-05-14T06:00:57.765Z,101018.06
2023-05-14T06:03:27.051Z,101156.44
2023-05-14T06:05:56.391Z,101157.56
2023-05-14T06:08:23.390Z,101110.75
2023-05-14T06:10:55.621Z,101140.84
2023-05-14T06:13:24.790Z,101034.56
2023-05-14T06:15:51.424Z,101128.16
2023-05-14T06:18:18.177Z,101165.28
2023-05-14T06:20:47.780Z,101165.84
2023-05-14T06:23:17.851Z,101093.84
2023-05-14T06:25:46.746Z,101038.97
2023-05-14T06:28:17.332Z,101149.22
2023-05-14T06:30:45.972Z,101158.59
2023-05-14T06:33:13.589Z,101084.09
2023-05-14T06:38:29.692Z,101153.91
2023-05-14T06:40:56.425Z,101152.69
2023-05-14T06:43:23.278Z,101150.75
2023-05-14T06:45:50.979Z,101155.19
2023-05-14T06:48:21.618Z,101156.41
2023-05-14T06:50:49.401Z,101149.06
2023-05-14T06:53:16.174Z,101145.38
2023-05-14T06:56:22.238Z,101146.06
2023-05-14T06:58:55.946Z,101136.94
2023-05-14T07:01:22.629Z,101078.97
2023-05-14T07:03:49.297Z,101127.13
2023-05-14T07:06:16.183Z,101060.97
2023-05-14T07:08:47.102Z,101056.78
2023-05-14T07:11:14.446Z,101137.34
2023-05-14T07:13:41.848Z,101124.34
2023-05-14T07:16:13.930Z,101020.59
2023-05-14T07:18:41.018Z,100950.19
2023-05-14T07:21:07.789Z,101117.84
2023-05-14T07:23:36.622Z,101122.81
2023-05-14T07:26:03.847Z,101115.34
2023-05-14T07:28:30.564Z,101115.78
2023-05-14T07:30:57.202Z,101115.19
2023-05-14T07:33:24.613Z,101114.78
2023-05-14T07:35:52.013Z,101112.28
2023-05-14T07:38:19.221Z,101064.31
2023-05-14T07:40:45.982Z,101101.78
2023-05-14T07:43:12.788Z,101098.59
2023-05-14T07:45:39.452Z,101080.44
2023-05-14T07:48:06.473Z,100955.78
2023-05-14T07:50:33.196Z,101067.84
2023-05-14T07:53:02.060Z,101024.06
2023-05-14T07:55:28.820Z,100925.81
2023-05-14T07:57:55.726Z,101093.97
2023-05-14T08:00:22.733Z,101096.59
2023-05-14T08:02:50.373Z,101091.88
2023-05-14T08:05:18.114Z,101091.72
2023-05-14T08:07:44.925Z,101030.91
2023-05-14T08:10:11.578Z,101045.31
2023-05-14T08:12:38.950Z,101085.50
2023-05-14T08:15:07.760Z,101082.97
2023-05-14T08:17:34.538Z,100954.06
2023-05-14T08:20:01.894Z,100990.63
2023-05-14T08:22:28.608Z,100967.13
2023-05-14T08:24:55.224Z,101001.00
2023-05-14T08:27:22.965Z,101071.22
2023-05-14T08:29:49.794Z,101034.28
2023-05-14T08:32:23.487Z,101067.13
2023-05-14T08:34:51.927Z,101036.13
2023-05-14T08:37:18.777Z,101069.91
2023-05-14T08:39:45.538Z,101058.84
2023-05-14T08:42:13.806Z,101061.72
2023-05-14T08:44:50.077Z,101006.59
2023-05-14T08:47:21.451Z,101068.72
2023-05-14T08:49:54.842Z,101058.63
2023-05-14T08:52:22.835Z,101015.34
2023-05-14T08:54:51.230Z,101036.16
2023-05-14T08:57:18.819Z,101058.72
2023-05-14T08:59:45.582Z,100995.56
2023-05-14T09:02:15.151Z,101045.16
2023-05-14T09:04:42.560Z,101045.72
2023-05-14T09:07:09.373Z,100845.25
2023-05-14T09:09:36.644Z,100932.38
2023-05-14T09:12:03.546Z,100919.22
2023-05-14T09:14:30.260Z,100935.47
2023-05-14T09:16:57.217Z,100975.16
2023-05-14T09:19:24.357Z,100915.59
2023-05-14T09:21:51.063Z,101014.88
2023-05-14T09:24:22.456Z,101035.44
2023-05-14T09:26:58.292Z,100970.69
2023-05-14T09:29:26.566Z,101026.88
2023-05-14T09:31:54.773Z,101031.53
2023-05-14T09:34:29.605Z,101037.63
2023-05-14T09:36:58.205Z,100936.81
2023-05-14T09:39:25.956Z,100967.06
2023-05-14T09:41:53.130Z,100975.38
2023-05-14T09:44:23.471Z,100997.91
2023-05-14T09:46:51.260Z,101004.22
2023-05-14T09:49:26.376Z,100974.66
2023-05-14T09:51:53.340Z,101009.56
2023-05-14T09:54:24.207Z,100985.34
2023-05-14T09:56:51.024Z,100983.03
2023-05-14T09:59:17.749Z,100955.53
2023-05-14T10:01:44.887Z,100766.25
2023-05-14T10:04:12.522Z,100949.59
2023-05-14T10:06:41.914Z,100972.97
2023-05-14T10:09:12.969Z,100993.69
2023-05-14T10:11:53.411Z,100995.16
2023-05-14T10:14:22.813Z,100988.41
2023-05-14T10:16:53.830Z,100981.44
2023-05-14T10:19:23.581Z,100951.53
2023-05-14T10:22:00.809Z,100899.44
2023-05-14T10:24:28.122Z,100938.94
2023-05-14T10:26:55.034Z,100963.91
2023-05-14T10:29:32.652Z,100948.88
2023-05-14T10:32:03.546Z,100977.81
2023-05-14T10:34:40.678Z,100983.91
2023-05-14T10:37:13.809Z,100813.53
2023-05-14T10:39:47.861Z,100936.38
2023-05-14T10:42:26.122Z,100958.88
2023-05-14T10:44:55.961Z,100948.50
2023-05-14T10:47:22.851Z,100956.31
2023-05-14T10:49:49.682Z,100946.56
2023-05-14T10:52:19.729Z,100886.25
2023-05-14T10:54:57.797Z,100908.88
2023-05-14T10:57:27.537Z,100932.69
2023-05-14T10:59:56.289Z,100937.66
2023-05-14T11:02:27.240Z,100929.75
2023-05-14T11:05:09.305Z,100799.25
2023-05-14T11:07:38.542Z,100926.56
2023-05-14T11:10:16.966Z,100836.59
2023-05-14T11:12:45.708Z,100921.75
2023-05-14T11:15:14.465Z,100858.88
2023-05-14T11:17:42.307Z,100852.28
2023-05-14T11:20:10.367Z,100921.09
2023-05-14T11:22:38.352Z,100923.22
2023-05-14T11:25:06.314Z,100908.69
2023-05-14T11:27:39.579Z,100886.06
2023-05-14T11:30:13.411Z,100904.53
2023-05-14T11:32:40.837Z,100909.66
2023-05-14T11:35:07.865Z,100898.75
2023-05-14T11:37:34.882Z,100879.06
2023-05-14T11:40:02.364Z,100878.91
2023-05-14T11:42:29.507Z,100894.09
2023-05-14T11:44:56.653Z,100892.28
2023-05-14T11:47:23.293Z,100891.25
2023-05-14T11:49:50.006Z,100793.09
2023-05-14T11:52:22.962Z,100849.13
2023-05-14T11:55:04.145Z,100877.53
2023-05-14T11:57:55.373Z,100632.84
2023-05-14T12:00:26.622Z,100737.84
2023-05-14T12:02:54.672Z,100746.72
2023-05-14T12:05:21.851Z,100864.94
2023-05-14T12:07:48.736Z,100854.34
2023-05-14T12:10:15.463Z,100859.53
2023-05-14T12:12:46.236Z,100763.88
2023-05-14T12:15:14.242Z,100533.25
2023-05-14T12:17:41.108Z,100718.06
2023-05-14T12:20:12.285Z,100842.03
2023-05-14T12:22:41.523Z,100702.75
2023-05-14T12:25:13.878Z,100807.94
2023-05-14T12:27:41.566Z,100820.41
2023-05-14T12:32:42.839Z,100678.84
2023-05-14T12:35:10.148Z,100797.75
2023-05-14T12:37:37.596Z,100746.47
2023-05-14T12:40:09.198Z,100767.88
2023-05-14T12:42:36.485Z,100812.81
2023-05-14T12:45:07.110Z,100778.97
2023-05-14T12:47:34.173Z,100807.53
2023-05-14T12:50:00.854Z,100738.69
2023-05-14T12:52:37.456Z,100794.81
2023-05-14T12:55:06.935Z,100796.63
2023-05-14T12:57:35.601Z,100792.78
2023-05-14T13:00:06.624Z,100791.16
2023-05-14T13:02:34.234Z,100655.22
2023-05-14T13:05:10.331Z,100714.16
2023-05-14T13:07:37.301Z,100777.84
2023-05-14T13:10:05.844Z,100774.78
2023-05-14T13:12:32.782Z,100766.19
2023-05-14T13:14:59.561Z,100761.69
2023-05-14T13:17:26.415Z,100758.41
2023-05-14T13:19:53.158Z,100756.09
2023-05-14T13:22:19.858Z,100731.88
2023-05-14T13:24:46.596Z,100624.94
2023-05-14T13:27:13.286Z,100732.16
2023-05-14T13:29:39.996Z,100740.16
2023-05-14T13:32:07.043Z,100746.94
2023-05-14T13:34:33.950Z,100608.16
2023-05-14T13:37:01.122Z,100704.69
2023-05-14T13:39:27.893Z,100743.75
2023-05-14T13:41:56.794Z,100738.38
2023-05-14T13:44:23.993Z,100753.72
2023-05-14T13:46:50.941Z,100699.84
2023-05-14T13:49:17.740Z,100733.25
2023-05-14T13:51:44.570Z,100711.31
2023-05-14T13:54:11.302Z,100683.28
2023-05-14T13:56:38.023Z,100384.44
2023-05-14T13:59:05.078Z,100715.06
2023-05-14T14:01:32.055Z,100695.63
2023-05-14T14:03:58.867Z,100628.69
2023-05-14T14:06:27.442Z,100694.88
2023-05-14T14:08:54.285Z,100707.19
2023-05-14T14:11:21.108Z,100694.31
2023-05-14T14:13:47.838Z,100611.53
2023-05-14T14:16:15.026Z,100692.22
2023-05-14T14:18:43.223Z,100699.16
2023-05-14T14:21:10.431Z,100563.25
2023-05-14T14:23:37.329Z,100693.22
2023-05-14T14:26:04.001Z,100695.69
2023-05-14T14:28:31.361Z,100700.00
2023-05-14T14:30:58.135Z,100695.88
2023-05-14T14:33:24.844Z,100695.69
2023-05-14T14:35:51.828Z,100697.34
2023-05-14T14:38:19.136Z,100686.16
2023-05-14T14:40:46.356Z,100690.47
2023-05-14T14:43:13.083Z,100686.34
2023-05-14T14:45:39.872Z,100546.97
2023-05-14T14:48:25.394Z,100686.09
2023-05-14T14:50:52.786Z,100696.94
2023-05-14T14:53:20.810Z,100687.56
2023-05-14T14:55:48.721Z,100560.66
2023-05-14T14:58:15.486Z,100685.09
2023-05-14T15:00:42.298Z,100677.69
2023-05-14T15:03:10.237Z,100659.88
2023-05-14T15:05:37.362Z,100674.22
2023-05-14T15:08:04.871Z,100614.13
2023-05-14T15:10:32.470Z,100640.78
2023-05-14T15:12:59.961Z,100672.03
2023-05-14T15:15:26.667Z,100666.81
2023-05-14T15:17:53.371Z,100617.75
2023-05-14T15:20:20.162Z,100569.09
2023-05-14T15:22:46.991Z,100654.94
2023-05-14T15:25:13.706Z,100646.53
2023-05-14T15:27:40.375Z,100657.31
2023-05-14T15:30:07.768Z,100687.66
2023-05-14T15:32:34.556Z,100603.69
2023-05-14T15:35:01.376Z,100647.28
2023-05-14T15:37:28.049Z,100568.59
2023-05-14T15:39:54.691Z,100649.19
2023-05-14T15:42:21.362Z,100737.09
2023-05-14T15:44:48.085Z,100609.44
2023-05-14T15:47:14.735Z,100618.78
2023-05-14T15:49:41.984Z,100346.00
2023-05-14T15:52:08.639Z,100642.16
2023-05-14T15:54:35.386Z,100633.38
2023-05-14T15:57:03.287Z,100617.38
2023-05-14T15:59:30.557Z,100615.38
2023-05-14T16:01:57.320Z,100627.81
2023-05-14T16:04:25.957Z,100630.25
2023-05-14T16:06:52.610Z,100626.25
2023-05-14T16:09:19.283Z,100568.25
2023-05-14T16:11:46.013Z,100619.13
2023-05-14T16:14:12.702Z,100615.44
2023-05-14T16:16:39.429Z,100615.84
2023-05-14T16:19:06.147Z,100572.09
2023-05-14T16:21:34.243Z,100563.34
2023-05-14T16:24:01.244Z,100499.53
2023-05-14T16:26:27.933Z,100473.88
2023-05-14T16:28:58.038Z,100558.22
2023-05-14T16:31:24.774Z,100609.25
2023-05-14T16:33:51.465Z,100508.47
2023-05-14T16:36:18.153Z,100592.38
2023-05-14T16:39:05.328Z,100259.59
2023-05-14T16:41:31.524Z,100508.94
2023-05-14T16:43:58.174Z,100598.28
2023-05-14T16:46:25.089Z,100659.50
2023-05-14T16:48:51.798Z,100558.59
2023-05-14T16:51:18.677Z,100625.41
2023-05-14T16:53:45.311Z,100447.19
2023-05-14T16:56:12.065Z,100593.28
2023-05-14T16:58:38.700Z,100560.56
2023-05-14T17:01:07.359Z,100589.44
2023-05-14T17:03:36.018Z,100589.16
2023-05-14T17:06:02.917Z,100463.66
2023-05-14T17:08:33.379Z,100459.13
2023-05-14T17:11:00.262Z,100584.31
2023-05-14T17:13:26.929Z,100564.41
2023-05-14T17:15:53.807Z,100585.69
2023-05-14T17:18:20.471Z,100578.47
2023-05-14T17:20:47.146Z,100579.28
2023-05-14T17:23:13.808Z,100537.56
2023-05-14T17:25:40.691Z,100571.25
2023-05-14T17:28:07.333Z,100578.94
2023-05-14T17:30:34.068Z,100433.00
2023-05-14T17:33:00.934Z,100445.25
2023-05-14T17:35:27.848Z,100578.19
2023-05-14T17:37:54.621Z,100574.56
2023-05-14T17:40:21.519Z,100533.09
2023-05-14T17:42:48.127Z,100516.41
2023-05-14T17:45:15.540Z,100567.63
2023-05-14T17:47:42.324Z,100391.06
2023-05-14T17:50:09.308Z,100519.78
2023-05-14T17:52:36.101Z,100565.25
2023-05-14T17:55:02.889Z,100562.31
2023-05-14T17:57:29.805Z,100469.44
2023-05-14T17:59:56.566Z,100509.09
2023-05-14T18:02:23.459Z,100524.22
2023-05-14T18:04:50.273Z,100488.41
2023-05-14T18:07:18.729Z,100555.00
2023-05-14T18:09:45.715Z,100569.13
2023-05-14T18:12:12.340Z,100563.56
2023-05-14T18:14:39.153Z,100506.22
2023-05-14T18:17:06.413Z,100560.00
2023-05-14T18:19:33.274Z,100561.63
2023-05-14T18:21:59.891Z,100452.28
2023-05-14T18:24:26.628Z,100552.69
2023-05-14T18:26:54.334Z,100528.88
2023-05-14T18:29:20.955Z,100531.94
2023-05-14T18:31:47.560Z,100508.00
2023-05-14T18:34:14.425Z,100526.22
2023-05-14T18:36:41.145Z,100505.00
2023-05-14T18:39:07.907Z,100597.69
2023-05-14T18:41:34.577Z,100607.34
2023-05-14T18:44:02.311Z,100575.00
2023-05-14T18:46:29.122Z,100610.09
2023-05-14T18:48:56.236Z,100553.56
2023-05-14T18:51:22.926Z,100542.91
2023-05-14T18:53:49.656Z,100431.69
2023-05-14T18:56:16.397Z,100623.19
2023-05-14T18:58:43.178Z,100616.78
2023-05-14T19:01:09.812Z,100582.19
2023-05-14T19:03:36.598Z,100611.97
2023-05-14T19:06:03.425Z,100616.28
2023-05-14T19:08:30.086Z,100574.63
2023-05-14T19:10:56.664Z,100613.97
2023-05-14T19:13:23.767Z,100616.31
2023-05-14T19:15:50.480Z,100431.16
2023-05-14T19:18:17.775Z,100545.66
2023-05-14T19:20:46.622Z,100580.94
2023-05-14T19:23:13.577Z,100608.25
2023-05-14T19:25:40.462Z,100510.06
2023-05-14T19:28:07.162Z,100607.94
2023-05-14T19:30:43.325Z,100328.34
2023-05-14T19:33:13.496Z,100456.56
2023-05-14T19:35:40.165Z,100603.16
2023-05-14T19:38:06.804Z,100573.38
2023-05-14T19:40:34.572Z,100500.00
2023-05-14T19:43:01.415Z,100538.13
2023-05-14T19:45:32.184Z,100629.56
2023-05-14T19:47:59.034Z,100598.09
2023-05-14T19:50:25.839Z,100601.56
2023-05-14T19:52:52.588Z,100556.72
2023-05-14T19:55:19.179Z,100571.56
2023-05-14T19:57:45.996Z,100592.81
2023-05-14T20:00:13.027Z,100559.31
2023-05-14T20:02:41.018Z,100586.72
2023-05-14T20:05:12.095Z,100534.44
2023-05-14T20:07:40.366Z,100560.00
2023-05-14T20:10:07.806Z,100379.38
2023-05-14T20:12:34.509Z,100393.84
2023-05-14T20:15:01.111Z,100460.66
2023-05-14T20:17:27.943Z,100572.78
2023-05-14T20:19:54.777Z,100505.13
2023-05-14T20:22:21.541Z,100629.81
2023-05-14T20:24:48.222Z,100511.09
2023-05-14T20:27:14.876Z,100403.09
2023-05-14T20:29:41.475Z,100570.72
2023-05-14T20:32:08.284Z,100569.75
2023-05-14T20:34:34.989Z,100339.41
2023-05-14T20:37:01.841Z,100529.19
2023-05-14T20:39:28.498Z,100563.81
2023-05-14T20:41:55.242Z,100518.38
2023-05-14T20:44:21.885Z,100503.66
2023-05-14T20:46:48.878Z,100556.50
2023-05-14T20:49:15.651Z,100554.19
2023-05-14T20:51:42.262Z,100489.28
2023-05-14T20:54:08.956Z,100439.00
2023-05-14T20:56:36.536Z,100492.66
2023-05-14T20:59:03.168Z,100543.47
2023-05-14T21:01:29.926Z,100516.41
2023-05-14T21:03:56.833Z,100541.00
2023-05-14T21:06:23.749Z,100410.56
2023-05-14T21:08:50.337Z,100536.72
2023-05-14T21:11:17.082Z,100546.66
2023-05-14T21:13:44.529Z,100493.94
2023-05-14T21:16:12.817Z,100536.41
2023-05-14T21:18:39.565Z,100530.78
2023-05-14T21:21:06.417Z,100504.69
2023-05-14T21:23:33.104Z,100402.28
2023-05-14T21:25:59.887Z,100505.38
2023-05-14T21:28:26.568Z,100498.72
2023-05-14T21:30:53.318Z,100338.56
2023-05-14T21:33:19.989Z,100531.25
2023-05-14T21:35:47.137Z,100503.47
2023-05-14T21:38:13.909Z,100378.72
2023-05-14T21:40:40.684Z,100422.66
2023-05-14T21:43:07.387Z,100516.63
2023-05-14T21:45:35.384Z,100467.38
2023-05-14T21:48:02.169Z,100430.56
2023-05-14T21:50:28.898Z,100511.53
2023-05-14T21:52:55.589Z,100326.31
2023-05-14T21:55:22.796Z,100442.66
2023-05-14T21:57:49.947Z,100240.41
2023-05-14T22:00:24.154Z,100514.00
2023-05-14T22:02:52.935Z,100520.44
2023-05-14T22:05:20.363Z,100480.44
2023-05-14T22:07:47.148Z,100445.88
2023-05-14T22:10:15.314Z,100510.16
2023-05-14T22:12:43.703Z,100474.16
2023-05-14T22:15:11.729Z,100444.31
2023-05-14T22:17:39.155Z,100512.72
2023-05-14T22:20:07.041Z,100465.25
2023-05-14T22:22:34.341Z,100291.09
2023-05-14T22:25:01.224Z,100536.03
2023-05-14T22:27:28.090Z,100513.63
2023-05-14T22:29:57.549Z,100401.88
2023-05-14T22:32:24.437Z,100445.63
2023-05-14T22:34:51.299Z,100523.88
2023-05-14T22:37:18.429Z,100503.31
2023-05-14T22:39:45.269Z,100423.81
2023-05-14T22:42:11.996Z,100510.25
2023-05-14T22:44:38.615Z,100507.91
2023-05-14T22:47:05.395Z,100501.25
2023-05-14T22:49:32.108Z,100048.31
2023-05-14T22:51:58.848Z,100379.78
2023-05-14T22:54:25.589Z,100500.94
2023-05-14T22:56:52.314Z,100361.72
2023-05-14T22:59:19.795Z,100506.69
2023-05-14T23:01:47.308Z,100516.94
2023-05-14T23:04:14.211Z,100494.19
2023-05-14T23:06:41.100Z,100480.53
2023-05-14T23:09:07.814Z,100515.50
2023-05-14T23:11:34.487Z,100515.41
2023-05-14T23:14:01.253Z,100505.44
2023-05-14T23:16:27.875Z,100521.28
2023-05-14T23:18:54.675Z,100279.22
2023-05-14T23:21:21.415Z,100461.28
2023-05-14T23:23:48.564Z,100449.34
2023-05-14T23:26:15.686Z,100471.03
2023-05-14T23:28:42.404Z,100502.56
2023-05-14T23:31:08.990Z,100439.91
2023-05-14T23:33:35.932Z,100419.81
2023-05-14T23:36:03.336Z,100485.13
2023-05-14T23:38:30.156Z,100488.84
2023-05-14T23:40:56.775Z,100485.25
2023-05-14T23:43:23.701Z,100384.50
2023-05-14T23:45:50.450Z,100170.09
2023-05-14T23:48:17.969Z,100480.91
2023-05-14T23:50:44.646Z,100338.50
2023-05-14T23:53:11.373Z,100470.16
2023-05-14T23:55:38.015Z,100085.53
2023-05-14T23:58:04.968Z,100395.78
